createdAt,value
2018-04-10T00:00:49.887Z,97849
2018-04-10T00:02:56.481Z,97845
2018-04-10T00:05:02.664Z,97840
2018-04-10T00:07:09.451Z,97841
2018-04-10T00:09:16.082Z,97842
2018-04-10T00:11:23.051Z,97843
2018-04-10T00:13:28.742Z,97848
2018-04-10T00:15:35.544Z,97843
2018-04-10T00:17:41.533Z,97843
2018-04-10T00:19:47.848Z,97843
2018-04-10T00:21:53.742Z,97845
2018-04-10T00:24:00.831Z,97842
2018-04-10T00:26:06.608Z,97850
2018-04-10T00:28:12.487Z,97855
2018-04-10T00:30:17.681Z,97857
2018-04-10T00:32:23.214Z,97852
2018-04-10T00:34:29.059Z,97848
2018-04-10T00:36:34.164Z,97845
2018-04-10T00:38:41.078Z,97848
2018-04-10T00:40:46.782Z,97848
2018-04-10T00:42:51.962Z,97847
2018-04-10T00:44:57.376Z,97846
2018-04-10T00:47:03.030Z,97849
2018-04-10T00:49:09.020Z,97839
2018-04-10T00:51:15.115Z,97847
2018-04-10T00:53:28.693Z,97849
2018-04-10T00:55:33.875Z,97850
2018-04-10T00:57:39.435Z,97849
2018-04-10T00:59:44.559Z,97848
2018-04-10T01:01:50.231Z,97847
2018-04-10T01:03:55.978Z,97846
2018-04-10T01:06:01.141Z,97844
2018-04-10T01:08:07.163Z,97844
2018-04-10T01:10:12.635Z,97851
2018-04-10T01:12:18.121Z,97850
2018-04-10T01:14:28.546Z,97853
2018-04-10T01:16:33.954Z,97849
2018-04-10T01:18:39.206Z,97846
2018-04-10T01:20:44.287Z,97844
2018-04-10T01:22:50.280Z,97836
2018-04-10T01:24:55.399Z,97837
2018-04-10T01:27:01.101Z,97845
2018-04-10T01:29:06.651Z,97848
2018-04-10T01:31:12.490Z,97853
2018-04-10T01:33:18.970Z,97857
2018-04-10T01:35:24.557Z,97855
2018-04-10T01:37:29.782Z,97859
2018-04-10T01:39:35.650Z,97861
2018-04-10T01:41:41.685Z,97861
2018-04-10T01:43:47.258Z,97869
2018-04-10T01:45:52.588Z,97870
2018-04-10T01:47:58.696Z,97870
2018-04-10T01:50:04.014Z,97872
2018-04-10T01:52:09.239Z,97868
2018-04-10T01:54:14.908Z,97870
2018-04-10T01:56:20.366Z,97866
2018-04-10T01:58:25.697Z,97860
2018-04-10T02:00:30.966Z,97861
2018-04-10T02:02:37.216Z,97857
2018-04-10T02:04:43.133Z,97859
2018-04-10T02:06:48.827Z,97858
2018-04-10T02:08:54.785Z,97857
2018-04-10T02:20:29.563Z,97838
2018-04-10T02:22:35.103Z,97836
2018-04-10T02:24:41.014Z,97848
2018-04-10T02:26:46.670Z,97846
2018-04-10T02:28:52.658Z,97852
2018-04-10T02:30:57.959Z,97845
2018-04-10T02:33:03.677Z,97844
2018-04-10T02:35:09.058Z,97843
2018-04-10T02:37:14.517Z,97842
2018-04-10T02:39:21.012Z,97836
2018-04-10T02:41:27.006Z,97842
2018-04-10T02:43:32.906Z,97845
2018-04-10T02:45:38.813Z,97854
2018-04-10T02:47:44.418Z,97858
2018-04-10T02:49:49.910Z,97856
2018-04-10T02:51:55.284Z,97858
2018-04-10T02:54:01.019Z,97855
2018-04-10T02:56:06.431Z,97855
2018-04-10T02:58:12.763Z,97856
2018-04-10T03:00:18.648Z,97851
2018-04-10T03:02:24.589Z,97855
2018-04-10T03:04:30.538Z,97853
2018-04-10T03:06:36.211Z,97862
2018-04-10T03:08:41.615Z,97860
2018-04-10T03:10:47.111Z,97857
2018-04-10T03:12:52.567Z,97860
2018-04-10T03:14:58.501Z,97852
2018-04-10T03:17:03.827Z,97846
2018-04-10T03:19:09.911Z,97845
2018-04-10T03:21:16.887Z,97848
2018-04-10T03:23:22.254Z,97845
2018-04-10T03:25:27.611Z,97850
2018-04-10T03:27:33.603Z,97842
2018-04-10T03:29:39.791Z,97839
2018-04-10T03:31:46.932Z,97836
2018-04-10T03:33:53.062Z,97837
2018-04-10T03:35:58.878Z,97841
2018-04-10T03:38:04.808Z,97845
2018-04-10T03:40:10.172Z,97852
2018-04-10T03:42:16.125Z,97843
2018-04-10T03:44:21.462Z,97846
2018-04-10T03:46:27.433Z,97853
2018-04-10T03:48:32.830Z,97850
2018-04-10T03:50:38.350Z,97853
2018-04-10T03:52:44.566Z,97851
2018-04-10T03:54:50.946Z,97857
2018-04-10T03:56:56.860Z,97855
2018-04-10T03:59:02.689Z,97851
2018-04-10T04:01:09.095Z,97862
2018-04-10T04:03:14.822Z,97851
2018-04-10T04:05:20.421Z,97850
2018-04-10T04:07:26.218Z,97853
2018-04-10T04:09:31.442Z,97859
2018-04-10T04:11:37.573Z,97855
2018-04-10T04:13:43.513Z,97858
2018-04-10T04:15:49.485Z,97866
2018-04-10T04:17:54.794Z,97864
2018-04-10T04:21:08.452Z,97854
2018-04-10T04:23:14.338Z,97856
2018-04-10T04:25:19.974Z,97850
2018-04-10T04:27:26.205Z,97848
2018-04-10T04:29:31.460Z,97844
2018-04-10T04:31:37.175Z,97841
2018-04-10T04:33:42.481Z,97843
2018-04-10T04:35:48.098Z,97843
2018-04-10T04:37:53.743Z,97845
2018-04-10T04:39:59.594Z,97846
2018-04-10T04:42:05.161Z,97852
2018-04-10T04:44:10.755Z,97850
2018-04-10T04:46:16.046Z,97850
2018-04-10T04:48:22.116Z,97849
2018-04-10T04:50:27.917Z,97837
2018-04-10T04:52:33.302Z,97838
2018-04-10T04:54:38.599Z,97835
2018-04-10T04:56:44.262Z,97836
2018-04-10T04:58:49.688Z,97843
2018-04-10T05:00:55.155Z,97838
2018-04-10T05:03:00.718Z,97839
2018-04-10T05:05:06.009Z,97841
2018-04-10T05:07:11.261Z,97851
2018-04-10T05:09:16.919Z,97847
2018-04-10T05:11:22.194Z,97859
2018-04-10T05:13:28.019Z,97859
2018-04-10T05:15:33.595Z,97857
2018-04-10T05:17:38.898Z,97847
2018-04-10T05:19:44.186Z,97852
2018-04-10T05:21:50.279Z,97854
2018-04-10T05:23:55.886Z,97851
2018-04-10T05:26:01.734Z,97855
2018-04-10T05:28:07.706Z,97857
2018-04-10T05:30:13.098Z,97848
2018-04-10T05:32:18.358Z,97850
2018-04-10T05:34:23.957Z,97846
2018-04-10T05:36:29.188Z,97849
2018-04-10T05:38:34.501Z,97851
2018-04-10T05:40:40.046Z,97851
2018-04-10T05:42:45.458Z,97845
2018-04-10T05:44:50.750Z,97848
2018-04-10T05:46:56.873Z,97860
2018-04-10T05:49:03.686Z,97856
2018-04-10T05:51:09.049Z,97858
2018-04-10T05:53:16.295Z,97852
2018-04-10T05:55:24.896Z,97851
2018-04-10T05:57:31.484Z,97856
2018-04-10T05:59:39.641Z,97853
2018-04-10T06:01:47.974Z,97852
2018-04-10T06:03:54.021Z,97851
2018-04-10T06:05:59.986Z,97850
2018-04-10T06:08:05.581Z,97851
2018-04-10T06:10:15.343Z,97852
2018-04-10T06:12:25.086Z,97843
2018-04-10T06:14:32.687Z,97837
2018-04-10T06:16:44.064Z,97837
2018-04-10T06:18:55.724Z,97838
2018-04-10T06:21:01.263Z,97836
2018-04-10T06:23:06.647Z,97841
2018-04-10T06:25:12.282Z,97839
2018-04-10T06:27:17.808Z,97847
2018-04-10T06:29:23.433Z,97845
2018-04-10T06:31:30.084Z,97844
2018-04-10T06:33:35.526Z,97841
2018-04-10T06:35:40.986Z,97842
2018-04-10T06:37:46.648Z,97839
2018-04-10T06:39:51.998Z,97841
2018-04-10T06:41:57.265Z,97845
2018-04-10T06:44:03.697Z,97841
2018-04-10T06:46:09.150Z,97844
2018-04-10T06:48:15.009Z,97837
2018-04-10T06:50:20.866Z,97844
2018-04-10T06:52:26.452Z,97848
2018-04-10T06:54:31.727Z,97853
2018-04-10T06:56:37.023Z,97856
2018-04-10T06:58:42.670Z,97852
2018-04-10T07:00:47.946Z,97856
2018-04-10T07:02:53.241Z,97857
2018-04-10T07:04:58.812Z,97858
2018-04-10T07:07:04.158Z,97861
2018-04-10T07:09:09.489Z,97865
2018-04-10T07:11:15.054Z,97867
2018-04-10T07:13:20.334Z,97868
2018-04-10T07:15:25.643Z,97863
2018-04-10T07:17:31.726Z,97860
2018-04-10T07:19:37.090Z,97869
2018-04-10T07:21:43.751Z,97870
2018-04-10T07:23:49.530Z,97867
2018-04-10T07:25:55.481Z,97864
2018-04-10T07:28:01.423Z,97868
2018-04-10T07:30:07.514Z,97869
2018-04-10T07:32:12.829Z,97869
2018-04-10T07:34:18.150Z,97866
2018-04-10T07:36:24.147Z,97862
2018-04-10T07:38:29.432Z,97862
2018-04-10T07:40:34.750Z,97866
2018-04-10T07:42:40.682Z,97868
2018-04-10T07:44:46.355Z,97865
2018-04-10T07:46:51.609Z,97869
2018-04-10T07:48:57.211Z,97861
2018-04-10T07:51:03.422Z,97864
2018-04-10T07:53:08.732Z,97869
2018-04-10T07:55:14.919Z,97874
2018-04-10T07:57:20.261Z,97872
2018-04-10T07:59:25.635Z,97873
2018-04-10T08:01:32.078Z,97869
2018-04-10T08:03:37.300Z,97873
2018-04-10T08:05:42.579Z,97871
2018-04-10T08:07:48.162Z,97872
2018-04-10T08:09:53.515Z,97875
2018-04-10T08:11:58.960Z,97874
2018-04-10T08:14:04.609Z,97875
2018-04-10T08:16:10.204Z,97878
2018-04-10T08:18:15.458Z,97879
2018-04-10T08:20:21.545Z,97877
2018-04-10T08:22:27.002Z,97880
2018-04-10T08:24:32.264Z,97873
2018-04-10T08:26:37.784Z,97881
2018-04-10T08:28:43.087Z,97881
2018-04-10T08:30:48.742Z,97879
2018-04-10T08:32:54.642Z,97878
2018-04-10T08:35:00.050Z,97877
2018-04-10T08:37:05.419Z,97881
2018-04-10T08:39:11.540Z,97884
2018-04-10T08:41:16.777Z,97886
2018-04-10T08:43:22.252Z,97884
2018-04-10T08:45:28.494Z,97884
2018-04-10T08:47:33.791Z,97886
2018-04-10T08:49:39.106Z,97886
2018-04-10T08:51:44.715Z,97885
2018-04-10T08:53:50.006Z,97874
2018-04-10T08:55:55.314Z,97882
2018-04-10T08:58:00.869Z,97876
2018-04-10T09:00:07.255Z,97881
2018-04-10T09:02:12.517Z,97881
2018-04-10T09:04:18.053Z,97877
2018-04-10T09:06:23.750Z,97881
2018-04-10T09:08:29.041Z,97879
2018-04-10T09:10:34.652Z,97866
2018-04-10T09:12:39.902Z,97870
2018-04-10T09:14:45.207Z,97867
2018-04-10T09:16:51.155Z,97869
2018-04-10T09:18:56.426Z,97874
2018-04-10T09:21:01.722Z,97868
2018-04-10T09:23:07.302Z,97871
2018-04-10T09:25:12.582Z,97867
2018-04-10T09:27:17.839Z,97873
2018-04-10T09:29:23.421Z,97872
2018-04-10T09:31:28.680Z,97863
2018-04-10T09:33:33.936Z,97867
2018-04-10T09:35:39.587Z,97871
2018-04-10T09:37:44.881Z,97859
2018-04-10T09:39:50.122Z,97864
2018-04-10T09:41:55.694Z,97858
2018-04-10T09:44:01.110Z,97857
2018-04-10T09:46:06.318Z,97859
2018-04-10T09:48:11.901Z,97861
2018-04-10T09:50:17.127Z,97861
2018-04-10T09:52:22.394Z,97857
2018-04-10T09:54:32.094Z,97859
2018-04-10T09:56:37.378Z,97860
2018-04-10T09:58:42.749Z,97857
2018-04-10T10:00:48.258Z,97847
2018-04-10T10:02:53.566Z,97846
2018-04-10T10:04:59.030Z,97848
2018-04-10T10:07:04.855Z,97846
2018-04-10T10:09:10.282Z,97847
2018-04-10T10:11:15.531Z,97850
2018-04-10T10:13:21.078Z,97847
2018-04-10T10:15:26.463Z,97855
2018-04-10T10:17:32.650Z,97847
2018-04-10T10:19:38.242Z,97844
2018-04-10T10:21:43.462Z,97843
2018-04-10T10:23:48.711Z,97844
2018-04-10T10:25:54.310Z,97847
2018-04-10T10:28:00.106Z,97844
2018-04-10T10:30:05.469Z,97851
2018-04-10T10:32:11.159Z,97846
2018-04-10T10:34:16.822Z,97852
2018-04-10T10:36:22.146Z,97850
2018-04-10T10:38:27.915Z,97844
2018-04-10T10:40:33.666Z,97845
2018-04-10T10:42:39.642Z,97843
2018-04-10T10:44:45.151Z,97843
2018-04-10T10:46:50.490Z,97849
2018-04-10T10:48:55.834Z,97848
2018-04-10T10:51:01.415Z,97846
2018-04-10T10:53:06.727Z,97842
2018-04-10T10:55:11.978Z,97840
2018-04-10T10:57:17.542Z,97832
2018-04-10T10:59:22.811Z,97836
2018-04-10T11:01:28.107Z,97840
2018-04-10T11:03:33.707Z,97839
2018-04-10T11:05:38.986Z,97835
2018-04-10T11:07:44.262Z,97838
2018-04-10T11:09:49.954Z,97836
2018-04-10T11:11:55.268Z,97832
2018-04-10T11:14:00.522Z,97823
2018-04-10T11:16:06.311Z,97829
2018-04-10T11:18:11.593Z,97829
2018-04-10T11:20:16.878Z,97824
2018-04-10T11:22:22.587Z,97826
2018-04-10T11:24:28.552Z,97826
2018-04-10T11:26:33.798Z,97830
2018-04-10T11:28:39.334Z,97828
2018-04-10T11:30:44.650Z,97828
2018-04-10T11:32:49.901Z,97822
2018-04-10T11:34:55.606Z,97820
2018-04-10T11:37:00.881Z,97817
2018-04-10T11:39:07.231Z,97822
2018-04-10T11:41:12.755Z,97809
2018-04-10T11:43:18.132Z,97815
2018-04-10T11:45:23.422Z,97816
2018-04-10T11:47:29.100Z,97803
2018-04-10T11:49:34.381Z,97805
2018-04-10T11:51:39.687Z,97805
2018-04-10T11:53:45.271Z,97796
2018-04-10T11:55:50.634Z,97802
2018-04-10T11:57:55.958Z,97796
2018-04-10T12:00:01.577Z,97795
2018-04-10T12:02:07.343Z,97797
2018-04-10T12:04:12.719Z,97784
2018-04-10T12:06:18.288Z,97789
2018-04-10T12:08:23.599Z,97784
2018-04-10T12:10:29.001Z,97784
2018-04-10T12:12:34.605Z,97788
2018-04-10T12:14:39.862Z,97788
2018-04-10T12:16:45.174Z,97811
2018-04-10T12:18:50.790Z,97809
2018-04-10T12:20:56.072Z,97804
2018-04-10T12:23:05.510Z,97804
2018-04-10T12:25:11.185Z,97789
2018-04-10T12:27:16.497Z,97797
2018-04-10T12:29:21.890Z,97802
2018-04-10T12:31:27.473Z,97800
2018-04-10T12:33:32.979Z,97799
2018-04-10T12:35:38.222Z,97791
2018-04-10T12:37:43.778Z,97791
2018-04-10T12:39:49.038Z,97799
2018-04-10T12:41:54.302Z,97798
2018-04-10T12:50:02.610Z,97799
2018-04-10T12:52:07.838Z,97794
2018-04-10T12:54:13.026Z,97796
2018-04-10T12:56:18.510Z,97798
2018-04-10T12:58:23.703Z,97798
2018-04-10T13:00:28.978Z,97801
2018-04-10T13:02:34.549Z,97797
2018-04-10T13:04:39.747Z,97801
2018-04-10T13:06:45.032Z,97801
2018-04-10T13:08:50.570Z,97803
2018-04-10T13:10:56.063Z,97798
2018-04-10T13:13:01.426Z,97790
2018-04-10T13:15:07.076Z,97776
2018-04-10T13:17:12.354Z,97762
2018-04-10T13:19:17.689Z,97770
2018-04-10T13:21:23.354Z,97768
2018-04-10T13:23:28.688Z,97759
2018-04-10T13:25:33.933Z,97765
2018-04-10T13:27:39.426Z,97749
2018-04-10T13:29:44.786Z,97758
2018-04-10T13:31:50.030Z,97758
2018-04-10T13:33:55.716Z,97751
2018-04-10T13:36:01.037Z,97759
2018-04-10T13:38:06.480Z,97758
2018-04-10T13:40:12.223Z,97752
2018-04-10T13:42:17.636Z,97764
2018-04-10T13:44:22.977Z,97760
2018-04-10T13:46:28.501Z,97756
2018-04-10T13:48:33.884Z,97754
2018-04-10T13:50:39.204Z,97749
2018-04-10T13:52:44.883Z,97752
2018-04-10T13:54:50.182Z,97735
2018-04-10T13:56:55.497Z,97751
2018-04-10T13:59:01.263Z,97747
2018-04-10T14:01:06.558Z,97739
2018-04-10T14:03:11.979Z,97741
2018-04-10T14:05:17.546Z,97736
2018-04-10T14:07:23.145Z,97735
2018-04-10T14:09:28.430Z,97746
2018-04-10T14:11:34.059Z,97725
2018-04-10T14:13:39.446Z,97735
2018-04-10T14:15:44.771Z,97731
2018-04-10T14:17:50.209Z,97730
2018-04-10T14:19:55.498Z,97719
2018-04-10T14:22:00.914Z,97722
2018-04-10T14:24:06.451Z,97712
2018-04-10T14:26:11.747Z,97711
2018-04-10T14:28:17.031Z,97714
2018-04-10T14:30:22.801Z,97711
2018-04-10T14:32:28.028Z,97707
2018-04-10T14:34:33.505Z,97704
2018-04-10T14:36:39.233Z,97710
2018-04-10T14:38:44.545Z,97709
2018-04-10T14:40:50.052Z,97706
2018-04-10T14:42:55.597Z,97705
2018-04-10T14:45:00.979Z,97703
2018-04-10T14:47:06.256Z,97693
2018-04-10T14:49:11.777Z,97691
2018-04-10T14:51:17.047Z,97690
2018-04-10T14:53:22.690Z,97689
2018-04-10T14:55:28.463Z,97684
2018-04-10T14:57:34.100Z,97686
2018-04-10T14:59:39.507Z,97685
2018-04-10T15:01:45.295Z,97686
2018-04-10T15:03:50.704Z,97683
2018-04-10T15:05:56.022Z,97677
2018-04-10T15:08:01.582Z,97686
2018-04-10T15:10:07.022Z,97684
2018-04-10T15:12:13.129Z,97692
2018-04-10T15:14:18.881Z,97684
2018-04-10T15:16:24.942Z,97677
2018-04-10T15:18:30.796Z,97683
2018-04-10T15:20:36.569Z,97683
2018-04-10T15:22:42.140Z,97685
2018-04-10T15:24:47.608Z,97681
2018-04-10T15:26:53.636Z,97682
2018-04-10T15:28:59.076Z,97683
2018-04-10T15:31:04.519Z,97683
2018-04-10T15:33:10.207Z,97681
2018-04-10T15:35:15.619Z,97687
2018-04-10T15:37:21.939Z,97688
2018-04-10T15:39:27.765Z,97688
2018-04-10T15:41:33.155Z,97689
2018-04-10T15:43:39.027Z,97685
2018-04-10T15:45:44.829Z,97686
2018-04-10T15:47:50.674Z,97686
2018-04-10T15:49:55.979Z,97687
2018-04-10T15:52:01.794Z,97692
2018-04-10T15:54:07.609Z,97691
2018-04-10T15:56:15.413Z,97693
2018-04-10T15:58:20.945Z,97687
2018-04-10T16:00:26.702Z,97696
2018-04-10T16:27:07.143Z,97712
2018-04-10T16:29:12.464Z,97717
2018-04-10T16:31:17.750Z,97714
2018-04-10T16:33:23.574Z,97716
2018-04-10T16:35:28.939Z,97713
2018-04-10T16:37:34.183Z,97718
2018-04-10T16:39:39.803Z,97717
2018-04-10T16:41:45.038Z,97719
2018-04-10T16:43:50.468Z,97719
2018-04-10T16:45:55.990Z,97717
2018-04-10T16:48:01.350Z,97715
2018-04-10T16:50:06.968Z,97716
2018-04-10T16:52:12.566Z,97719
2018-04-10T16:54:17.879Z,97727
2018-04-10T16:56:23.300Z,97727
2018-04-10T16:58:28.803Z,97724
2018-04-10T17:00:34.070Z,97729
2018-04-10T17:02:39.351Z,97730
2018-04-10T17:04:44.908Z,97732
2018-04-10T17:06:50.762Z,97732
2018-04-10T17:08:56.117Z,97729
2018-04-10T17:11:01.631Z,97730
2018-04-10T17:13:07.010Z,97735
2018-04-10T17:15:12.574Z,97730
2018-04-10T17:17:18.743Z,97734
2018-04-10T17:19:24.215Z,97736
2018-04-10T17:21:29.607Z,97742
2018-04-10T17:23:35.335Z,97741
2018-04-10T17:25:41.545Z,97748
2018-04-10T17:27:47.279Z,97750
2018-04-10T17:29:53.159Z,97748
2018-04-10T17:31:58.738Z,97753
2018-04-10T17:34:04.502Z,97755
2018-04-10T17:36:10.126Z,97755
2018-04-10T17:38:15.505Z,97762
2018-04-10T17:40:20.873Z,97761
2018-04-10T17:42:27.170Z,97763
2018-04-10T17:44:32.489Z,97760
2018-04-10T17:46:38.179Z,97764
2018-04-10T17:48:43.790Z,97769
2018-04-10T17:50:49.131Z,97767
2018-04-10T17:52:54.402Z,97771
2018-04-10T17:54:59.982Z,97773
2018-04-10T17:57:05.334Z,97771
2018-04-10T17:59:10.658Z,97774
2018-04-10T18:02:40.078Z,97766
2018-04-10T18:04:45.363Z,97776
2018-04-10T18:06:51.198Z,97780
2018-04-10T18:08:56.550Z,97778
2018-04-10T18:11:01.859Z,97781
2018-04-10T18:13:07.498Z,97780
2018-04-10T18:15:12.774Z,97787
2018-04-10T18:17:18.421Z,97787
2018-04-10T18:19:24.190Z,97793
2018-04-10T18:21:29.394Z,97797
2018-04-10T18:23:34.717Z,97797
2018-04-10T18:25:40.318Z,97800
2018-04-10T18:27:45.629Z,97805
2018-04-10T18:29:50.882Z,97807
2018-04-10T18:31:56.424Z,97809
2018-04-10T18:34:01.841Z,97815
2018-04-10T18:36:07.250Z,97822
2018-04-10T18:38:13.144Z,97825
2018-04-10T18:40:18.483Z,97831
2018-04-10T18:42:24.018Z,97831
2018-04-10T18:44:29.798Z,97837
2018-04-10T18:46:35.190Z,97838
2018-04-10T18:48:40.591Z,97838
2018-04-10T18:50:51.268Z,97840
2018-04-10T18:52:57.374Z,97842
2018-04-10T18:55:03.369Z,97847
2018-04-10T18:57:09.028Z,97849
2018-04-10T18:59:14.349Z,97855
2018-04-10T19:01:20.188Z,97856
2018-04-10T19:03:25.781Z,97858
2018-04-10T19:05:31.087Z,97860
2018-04-10T19:07:36.326Z,97864
2018-04-10T19:09:42.106Z,97864
2018-04-10T19:11:47.441Z,97866
2018-04-10T19:13:52.770Z,97866
2018-04-10T19:15:58.374Z,97870
2018-04-10T19:18:04.469Z,97872
2018-04-10T19:20:10.140Z,97867
2018-04-10T19:22:16.366Z,97870
2018-04-10T19:24:22.021Z,97872
2018-04-10T19:26:27.516Z,97865
2018-04-10T19:28:33.421Z,97863
2018-04-10T19:30:38.706Z,97863
2018-04-10T19:32:43.950Z,97862
2018-04-10T19:34:49.571Z,97859
2018-04-10T19:36:54.923Z,97859
2018-04-10T19:39:00.342Z,97866
2018-04-10T19:41:06.284Z,97868
2018-04-10T19:43:11.789Z,97871
2018-04-10T19:45:17.285Z,97875
2018-04-10T19:47:23.046Z,97874
2018-04-10T19:49:28.394Z,97872
2018-04-10T19:51:34.826Z,97878
2018-04-10T19:53:40.528Z,97880
2018-04-10T19:55:45.940Z,97880
2018-04-10T19:57:51.323Z,97878
2018-04-10T19:59:56.977Z,97878
2018-04-10T20:02:03.072Z,97884
2018-04-10T20:04:08.434Z,97886
2018-04-10T20:06:14.071Z,97887
2018-04-10T20:08:19.553Z,97886
2018-04-10T20:10:24.788Z,97889
2018-04-10T20:12:30.358Z,97892
2018-04-10T20:14:35.665Z,97891
2018-04-10T20:16:41.486Z,97888
2018-04-10T20:18:47.022Z,97889
2018-04-10T20:20:52.326Z,97888
2018-04-10T20:22:58.256Z,97896
2018-04-10T20:25:03.845Z,97890
2018-04-10T20:27:09.174Z,97891
2018-04-10T20:29:14.422Z,97899
2018-04-10T20:31:20.023Z,97890
2018-04-10T20:33:25.358Z,97880
2018-04-10T20:35:30.681Z,97891
2018-04-10T20:37:36.315Z,97894
2018-04-10T20:39:41.728Z,97903
2018-04-10T20:41:47.003Z,97898
2018-04-10T20:43:52.640Z,97904
2018-04-10T20:45:57.948Z,97909
2018-04-10T20:48:03.867Z,97913
2018-04-10T20:50:10.117Z,97914
2018-04-10T20:52:15.366Z,97911
2018-04-10T20:54:20.865Z,97926
2018-04-10T20:56:26.744Z,97921
2018-04-10T20:58:32.045Z,97921
2018-04-10T21:00:37.352Z,97928
2018-04-10T21:02:42.929Z,97929
2018-04-10T21:04:48.167Z,97924
2018-04-10T21:06:53.996Z,97925
2018-04-10T21:11:12.408Z,97932
2018-04-10T21:13:17.879Z,97939
2018-04-10T21:15:24.579Z,97942
2018-04-10T21:17:29.898Z,97946
2018-04-10T21:19:35.323Z,97947
2018-04-10T21:21:41.087Z,97950
2018-04-10T21:23:48.734Z,97946
2018-04-10T21:25:54.255Z,97953
2018-04-10T21:27:59.969Z,97952
2018-04-10T21:30:05.479Z,97954
2018-04-10T21:32:15.091Z,97962
2018-04-10T21:34:33.843Z,97958
2018-04-10T21:36:47.997Z,97967
2018-04-10T21:39:01.107Z,97967
2018-04-10T21:41:07.466Z,97971
2018-04-10T21:43:18.598Z,97970
2018-04-10T21:45:25.936Z,97977
2018-04-10T21:47:32.058Z,97974
2018-04-10T21:49:39.516Z,97975
2018-04-10T21:51:44.941Z,97980
2018-04-10T21:53:57.651Z,97981
2018-04-10T21:56:02.975Z,97985
2018-04-10T21:58:14.483Z,97988
2018-04-10T22:00:25.493Z,97987
2018-04-10T22:02:33.022Z,97988
2018-04-10T22:04:38.362Z,97986
2018-04-10T22:06:44.004Z,97990
2018-04-10T22:08:49.556Z,97993
2018-04-10T22:10:54.853Z,97996
2018-04-10T22:33:30.352Z,97994
2018-04-10T22:35:35.706Z,97991
2018-04-10T22:37:40.999Z,97990
2018-04-10T22:39:46.638Z,97996
2018-04-10T22:41:51.995Z,97994
2018-04-10T22:43:57.280Z,97991
2018-04-10T22:46:02.979Z,97997
2018-04-10T22:48:09.801Z,97985
2018-04-10T22:50:18.497Z,97990
2018-04-10T22:52:24.201Z,97987
2018-04-10T22:54:33.065Z,97986
2018-04-10T22:56:44.906Z,97986
2018-04-10T22:58:52.996Z,97986
2018-04-10T23:00:58.345Z,97987
2018-04-10T23:03:04.785Z,97991
2018-04-10T23:05:10.340Z,97987
2018-04-10T23:07:15.699Z,97994
2018-04-10T23:09:20.959Z,97993
2018-04-10T23:11:26.544Z,97999
2018-04-10T23:13:31.819Z,97998
2018-04-10T23:15:37.570Z,97992
2018-04-10T23:17:44.121Z,98002
2018-04-10T23:19:50.002Z,97998
2018-04-10T23:21:55.258Z,98002
2018-04-10T23:24:00.996Z,97998
2018-04-10T23:26:07.120Z,98002
2018-04-10T23:28:12.395Z,98003
2018-04-10T23:30:18.384Z,98007
2018-04-10T23:32:24.302Z,98012
2018-04-10T23:34:30.134Z,98013
2018-04-10T23:36:36.342Z,98014
2018-04-10T23:38:42.188Z,98010
2018-04-10T23:40:48.754Z,98017
2018-04-10T23:42:54.795Z,98016
2018-04-10T23:45:00.570Z,98012
2018-04-10T23:47:06.911Z,98012
2018-04-10T23:49:12.202Z,98008
2018-04-10T23:51:17.498Z,98009
2018-04-10T23:53:23.612Z,98008
2018-04-10T23:55:29.705Z,98014
2018-04-10T23:57:35.067Z,98018
2018-04-10T23:59:41.427Z,98019
